Time;durP1;ratioP1;P1;durP2;ratioP2;P2;SDS_P1;SDS_P2;PMS_P1;PMS_P2;Temp;Humidity;BMP_temperature;BMP_pressure;BME280_temperature;BME280_humidity;BME280_pressure;Samples;Min_cycle;Max_cycle;Signal;HPM_P1;HPM_P2
2022/08/18 00:02:24;;;;;;;13.80;10.18;;;;;;;24.00;74.62;99176.53;5034689;28;20052;-78
2022/08/18 00:04:50;;;;;;;14.68;10.30;;;;;;;24.04;75.14;99180.50;5034364;28;20026;-78
2022/08/18 00:07:29;;;;;;;11.95;10.05;;;;;;;23.99;75.44;99182.03;5034309;28;20076;-78
2022/08/18 00:09:57;;;;;;;11.77;9.98;;;;;;;23.97;75.63;99187.50;5034177;28;20424;-78
2022/08/18 00:12:33;;;;;;;12.40;9.85;;;;;;;23.93;75.84;99180.03;5034192;28;20393;-78
2022/08/18 00:15:02;;;;;;;13.32;10.52;;;;;;;23.85;75.98;99173.75;5034237;28;20029;-78
2022/08/18 00:17:29;;;;;;;11.13;9.38;;;;;;;23.82;75.68;99178.56;5034122;28;20504;-78
2022/08/18 00:19:54;;;;;;;10.95;9.93;;;;;;;23.82;76.55;99183.88;5033933;28;20029;-78
2022/08/18 00:22:20;;;;;;;14.40;9.73;;;;;;;23.80;76.69;99186.69;5034086;28;20443;-78
2022/08/18 00:24:49;;;;;;;11.27;10.05;;;;;;;23.72;77.20;99189.34;5033688;28;20072;-78
2022/08/18 00:27:26;;;;;;;11.80;9.50;;;;;;;23.62;77.26;99180.69;5033993;28;20359;-78
2022/08/18 00:29:53;;;;;;;12.27;10.57;;;;;;;23.61;77.78;99179.88;5033693;28;20026;-78
2022/08/18 00:32:32;;;;;;;11.15;10.05;;;;;;;23.55;78.13;99185.00;5033990;28;20083;-78
2022/08/18 00:35:08;;;;;;;10.80;9.73;;;;;;;23.50;78.38;99179.34;5033818;28;20075;-78
2022/08/18 00:37:35;;;;;;;11.07;9.73;;;;;;;23.46;78.02;99186.81;5033897;28;20071;-78
2022/08/18 00:40:01;;;;;;;10.93;9.93;;;;;;;23.36;78.43;99181.69;5033668;28;20026;-78
2022/08/18 00:42:28;;;;;;;14.20;10.13;;;;;;;23.35;79.13;99182.69;5034131;28;20037;-78
2022/08/18 00:44:55;;;;;;;12.98;10.60;;;;;;;23.39;79.16;99186.66;5033606;28;20026;-78
2022/08/18 00:47:21;;;;;;;17.65;10.30;;;;;;;23.36;79.46;99186.16;5033771;28;20025;-78
2022/08/18 00:49:51;;;;;;;12.75;10.52;;;;;;;23.28;79.47;99173.69;5033325;28;20026;-78
2022/08/18 00:52:17;;;;;;;;;;;;;;;23.33;79.91;99178.50;5033980;28;20033;-78
2022/08/18 00:54:45;;;;;;;12.23;10.75;;;;;;;23.28;80.14;99170.22;5033741;28;20007;-78
2022/08/18 00:57:14;;;;;;;14.13;11.55;;;;;;;23.20;80.66;99176.34;5033646;28;20369;-78
2022/08/18 00:59:46;;;;;;;12.93;10.77;;;;;;;23.19;81.17;99182.66;5033289;28;20100;-79
2022/08/18 01:02:19;;;;;;;11.95;10.75;;;;;;;23.12;81.75;99174.50;5033057;28;20026;-78
2022/08/18 01:04:55;;;;;;;11.75;10.55;;;;;;;23.09;81.59;99166.00;5033503;28;20033;-78
2022/08/18 01:07:28;;;;;;;12.00;10.68;;;;;;;23.06;81.42;99166.38;5032833;28;20394;-78
2022/08/18 01:09:58;;;;;;;13.38;10.70;;;;;;;22.96;81.98;99155.88;5032947;28;20034;-78
2022/08/18 01:12:24;;;;;;;12.65;11.10;;;;;;;22.93;81.99;99150.91;5033139;28;20033;-78
2022/08/18 01:14:49;;;;;;;12.55;11.25;;;;;;;22.93;81.96;99158.03;5032817;28;20120;-78
2022/08/18 01:22:48;;;;;;;12.43;11.23;;;;;;;22.85;82.93;99150.84;5033313;28;20050;-78
2022/08/18 01:28:05;;;;;;;13.57;10.75;;;;;;;22.74;83.66;99148.47;5032733;28;20040;-78
2022/08/18 01:30:42;;;;;;;13.75;11.18;;;;;;;22.77;83.04;99153.47;5032988;28;20476;-77
2022/08/18 01:33:09;;;;;;;12.63;11.25;;;;;;;22.72;83.32;99145.19;5032522;28;20037;-78
2022/08/18 01:35:34;;;;;;;11.45;10.35;;;;;;;22.72;83.46;99153.97;5032441;28;20026;-78
2022/08/18 01:38:00;;;;;;;12.15;10.82;;;;;;;22.66;83.50;99158.06;5032994;28;20496;-78
2022/08/18 01:40:25;;;;;;;13.07;11.65;;;;;;;22.54;84.13;99129.34;5032754;28;20023;-78
2022/08/18 01:42:50;;;;;;;13.95;11.68;;;;;;;22.59;84.24;99148.28;5032764;28;20025;-78
2022/08/18 01:45:19;;;;;;;13.13;11.82;;;;;;;22.51;84.54;99146.44;5032613;28;20032;-78
2022/08/18 01:47:44;;;;;;;14.27;11.60;;;;;;;22.44;85.10;99145.41;5032223;28;20091;-78
2022/08/18 01:50:11;;;;;;;12.73;11.40;;;;;;;22.39;85.40;99142.41;5032058;28;20469;-78
2022/08/18 01:52:36;;;;;;;14.13;12.27;;;;;;;22.40;86.00;99154.66;5032718;28;20103;-78
2022/08/18 01:55:04;;;;;;;13.18;11.50;;;;;;;22.39;86.09;99153.84;5032240;28;20053;-78
2022/08/18 01:57:29;;;;;;;12.80;11.25;;;;;;;22.33;86.12;99149.19;5032332;28;20115;-78
2022/08/18 01:59:56;;;;;;;19.17;12.70;;;;;;;22.37;86.25;99155.81;5032082;28;20076;-78
2022/08/18 02:02:26;;;;;;;13.65;12.18;;;;;;;22.32;86.04;99144.84;5032362;28;20094;-78
2022/08/18 02:04:58;;;;;;;16.77;11.93;;;;;;;22.29;86.42;99155.78;5031975;28;20037;-78
2022/08/18 02:07:24;;;;;;;16.15;12.25;;;;;;;22.28;87.20;99156.75;5031821;28;20137;-78
2022/08/18 02:09:49;;;;;;;13.30;11.98;;;;;;;22.24;87.55;99158.06;5032352;28;20642;-78
2022/08/18 02:12:15;;;;;;;14.48;11.82;;;;;;;22.11;87.50;99144.38;5031782;28;20027;-78
2022/08/18 02:14:41;;;;;;;13.30;12.10;;;;;;;22.15;87.82;99156.38;5032157;28;20097;-78
2022/08/18 02:17:08;;;;;;;13.68;11.88;;;;;;;22.10;87.86;99154.16;5031698;28;20108;-78
2022/08/18 02:19:38;;;;;;;17.08;12.25;;;;;;;22.10;87.78;99148.03;5032029;28;20097;-78
2022/08/18 02:22:05;;;;;;;12.68;11.45;;;;;;;22.12;87.80;99157.53;5031815;28;20033;-78
2022/08/18 02:24:30;;;;;;;14.30;11.98;;;;;;;22.04;88.04;99149.50;5031940;28;20025;-78
2022/08/18 02:26:56;;;;;;;13.48;12.13;;;;;;;22.07;88.15;99154.44;5031748;28;20033;-78
2022/08/18 02:29:21;;;;;;;13.75;12.35;;;;;;;22.00;88.40;99145.47;5031696;28;20033;-78
2022/08/18 02:31:46;;;;;;;17.15;12.27;;;;;;;21.97;88.57;99140.50;5031691;28;20029;-78
2022/08/18 02:34:12;;;;;;;14.13;12.63;;;;;;;21.97;88.46;99143.13;5031931;28;20037;-77
2022/08/18 02:36:38;;;;;;;15.18;12.95;;;;;;;21.99;89.26;99146.44;5031716;28;20112;-78
2022/08/18 02:39:03;;;;;;;14.23;12.93;;;;;;;21.95;88.50;99139.78;5031344;28;20536;-78
2022/08/18 02:41:30;;;;;;;15.73;13.45;;;;;;;21.93;89.02;99141.78;5031383;28;20042;-78
2022/08/18 02:43:56;;;;;;;13.45;11.68;;;;;;;21.84;89.23;99140.91;5031542;28;20112;-79
2022/08/18 02:46:21;;;;;;;14.38;12.80;;;;;;;21.83;89.42;99146.38;5031594;28;20478;-79
2022/08/18 02:48:48;;;;;;;14.20;12.68;;;;;;;21.76;89.43;99129.41;5031711;28;20032;-79
2022/08/18 02:51:15;;;;;;;15.10;13.20;;;;;;;21.81;89.44;99149.16;5031511;28;20036;-79
2022/08/18 02:53:44;;;;;;;15.18;13.13;;;;;;;21.79;90.04;99145.03;5031391;28;20313;-78
2022/08/18 02:56:26;;;;;;;13.45;11.93;;;;;;;21.76;90.70;99146.16;5031138;28;20026;-78
2022/08/18 02:59:04;;;;;;;14.45;13.02;;;;;;;21.67;90.29;99139.13;5031497;28;20087;-78
2022/08/18 03:01:32;;;;;;;14.18;12.88;;;;;;;21.67;90.61;99142.63;5031215;28;20393;-78
2022/08/18 03:03:59;;;;;;;14.13;12.70;;;;;;;21.70;90.87;99137.97;4996155;28;20208;-78
2022/08/18 03:06:26;;;;;;;15.45;12.57;;;;;;;21.62;90.70;99131.66;5031517;28;20424;-78
2022/08/18 03:08:53;;;;;;;14.93;13.48;;;;;;;21.66;91.16;99140.13;5031305;28;20036;-78
2022/08/18 03:11:24;;;;;;;15.05;13.50;;;;;;;21.56;91.78;99123.47;5031012;28;20531;-78
2022/08/18 03:13:51;;;;;;;18.38;13.75;;;;;;;21.54;92.35;99131.59;5031514;28;20026;-78
2022/08/18 03:16:17;;;;;;;15.75;14.13;;;;;;;21.60;92.55;99135.44;5031135;28;20035;-78
2022/08/18 03:18:45;;;;;;;16.20;13.43;;;;;;;21.53;93.14;99135.22;5031517;28;20086;-78
2022/08/18 03:21:14;;;;;;;15.18;13.65;;;;;;;21.54;93.35;99131.59;5031151;28;20033;-78
2022/08/18 03:23:41;;;;;;;16.02;14.02;;;;;;;21.55;93.02;99135.06;5031170;28;20029;-78
2022/08/18 03:26:10;;;;;;;15.48;13.85;;;;;;;21.51;93.04;99131.06;5034455;28;20040;-78
2022/08/18 03:28:39;;;;;;;14.85;13.35;;;;;;;21.47;93.12;99130.53;5035380;28;20022;-78
2022/08/18 03:31:05;;;;;;;15.70;14.10;;;;;;;21.50;93.39;99132.88;5035048;28;20037;-78
2022/08/18 03:33:31;;;;;;;15.05;13.55;;;;;;;;;;5034966;28;20043;-78
2022/08/18 03:36:06;;;;;;;15.60;13.95;;;;;;;21.49;93.18;99140.97;5034710;28;20461;-78
2022/08/18 03:38:32;;;;;;;16.83;14.80;;;;;;;21.49;93.32;99148.91;5034753;28;20154;-78
2022/08/18 03:40:57;;;;;;;15.35;13.85;;;;;;;21.46;93.43;99144.78;5034688;28;20100;-78
2022/08/18 03:43:23;;;;;;;15.57;13.27;;;;;;;21.45;93.35;99153.72;5034822;28;20112;-78
2022/08/18 03:45:49;;;;;;;15.00;13.30;;;;;;;21.40;93.33;99145.38;5034999;28;20083;-78
2022/08/18 03:48:15;;;;;;;14.45;13.05;;;;;;;21.42;93.49;99154.00;5034952;28;20049;-78
2022/08/18 03:50:40;;;;;;;14.25;12.95;;;;;;;21.39;93.52;99157.78;5037378;28;20044;-78
2022/08/18 03:53:05;;;;;;;15.73;14.10;;;;;;;21.40;93.61;99159.44;5034385;28;20112;-78
2022/08/18 03:55:31;;;;;;;18.40;14.68;;;;;;;21.34;94.60;99157.41;5034784;28;20105;-78
2022/08/18 03:58:01;;;;;;;23.30;16.13;;;;;;;21.36;95.51;99174.00;5034435;28;20108;-78
2022/08/18 04:00:29;;;;;;;17.02;14.52;;;;;;;21.30;95.51;99165.78;5034530;28;20473;-78
2022/08/18 04:02:55;;;;;;;16.27;14.57;;;;;;;21.27;95.52;99164.25;5034588;28;20030;-78
2022/08/18 04:05:21;;;;;;;15.23;13.70;;;;;;;21.32;95.11;99175.28;5034173;28;20029;-78
2022/08/18 04:07:46;;;;;;;16.30;14.68;;;;;;;21.28;94.91;99165.94;5034064;28;20050;-78
2022/08/18 04:10:12;;;;;;;15.38;13.88;;;;;;;21.37;94.94;99174.84;5034625;28;20034;-78
2022/08/18 04:12:40;;;;;;;16.38;14.88;;;;;;;21.42;95.31;99167.25;5034328;28;20104;-78
2022/08/18 04:15:05;;;;;;;16.67;15.07;;;;;;;21.41;95.00;99162.94;5033878;28;20035;-78
2022/08/18 04:17:31;;;;;;;17.60;14.60;;;;;;;21.50;95.54;99166.50;5033994;28;20022;-78
2022/08/18 04:19:57;;;;;;;19.45;15.10;;;;;;;21.63;95.69;99175.72;5033999;28;20026;-78
2022/08/18 04:22:23;;;;;;;15.85;14.35;;;;;;;21.67;95.50;99178.88;5033656;28;20056;-78
2022/08/18 04:24:49;;;;;;;15.82;14.15;;;;;;;21.71;95.02;99180.25;5034056;28;20026;-78
2022/08/18 04:27:15;;;;;;;18.25;15.18;;;;;;;21.76;94.74;99177.13;5033902;28;20128;-78
2022/08/18 04:29:41;;;;;;;17.92;16.10;;;;;;;21.89;94.37;99188.97;5033915;28;20034;-78
2022/08/18 04:32:06;;;;;;;18.85;15.07;;;;;;;21.98;93.57;99181.91;5033901;28;20025;-78
2022/08/18 04:34:33;;;;;;;17.13;15.30;;;;;;;22.01;93.12;99178.97;5034067;28;20080;-89
2022/08/18 04:36:59;;;;;;;18.23;16.42;;;;;;;22.10;92.91;99180.66;5015719;28;20128;-88
2022/08/18 04:39:24;;;;;;;17.35;15.68;;;;;;;22.25;92.73;99180.13;5016011;28;20496;-88
2022/08/18 04:41:50;;;;;;;17.50;15.70;;;;;;;22.36;91.77;99182.50;5016065;28;20030;-89
2022/08/18 04:44:17;;;;;;;19.02;17.02;;;;;;;22.41;91.13;99183.69;5015775;28;20428;-88
2022/08/18 04:46:48;;;;;;;18.73;16.83;;;;;;;22.56;90.63;99186.59;5034288;28;20025;-92
2022/08/18 04:49:14;;;;;;;17.00;15.23;;;;;;;22.67;90.26;99183.66;5017117;28;20029;-93
2022/08/18 04:53:43;;;;;;;17.50;15.75;;;;;;;22.84;89.47;99195.16;5017375;28;20048;-93
2022/08/18 04:54:29;;;;;;;18.73;16.50;;;;;;;23.15;88.59;99186.63;5034942;28;20029;-93
2022/08/18 04:56:55;;;;;;;19.13;17.23;;;;;;;23.37;86.95;99179.84;5017098;28;20393;-90
2022/08/18 04:59:20;;;;;;;17.67;15.88;;;;;;;23.60;85.81;99180.03;5015768;28;20025;-90
2022/08/18 05:01:46;;;;;;;18.58;16.88;;;;;;;23.82;85.11;99186.53;5033261;28;20078;-89
2022/08/18 05:04:13;;;;;;;21.15;17.30;;;;;;;23.88;84.89;99177.88;5033557;28;20033;-88
2022/08/18 05:06:39;;;;;;;24.40;16.83;;;;;;;24.15;83.81;99188.16;5015391;28;20045;-88
2022/08/18 05:09:07;;;;;;;19.48;16.50;;;;;;;24.38;83.14;99176.78;5015660;28;20048;-90
2022/08/18 05:11:34;;;;;;;17.67;15.65;;;;;;;24.60;82.36;99178.69;5033769;28;20068;-89
2022/08/18 05:14:05;;;;;;;18.45;16.63;;;;;;;24.86;80.84;99173.09;5016167;28;20071;-91
2022/08/18 05:16:35;;;;;;;19.77;17.23;;;;;;;25.24;79.01;99177.72;5018494;28;20037;-92
2022/08/18 05:19:05;;;;;;;20.23;16.98;;;;;;;25.39;78.33;99186.63;5033673;28;20503;-92
2022/08/18 05:21:32;;;;;;;;;;;;;;;25.49;77.92;99192.53;5015706;28;20025;-90
2022/08/18 05:23:59;;;;;;;19.40;17.27;;;;;;;25.43;77.80;99193.25;5015568;28;19944;-91
2022/08/18 05:26:26;;;;;;;18.17;16.15;;;;;;;25.57;77.93;99195.13;5015489;28;20032;-90
2022/08/18 05:28:52;;;;;;;21.40;17.25;;;;;;;25.69;78.13;99195.53;5015845;28;20487;-90
2022/08/18 05:31:20;;;;;;;20.40;17.10;;;;;;;25.80;77.05;99200.50;5015283;28;20021;-91
2022/08/18 05:33:47;;;;;;;19.92;16.73;;;;;;;25.88;77.32;99207.59;5015676;28;20032;-91
2022/08/18 05:36:18;;;;;;;22.35;18.30;;;;;;;26.19;76.46;99201.28;5015770;28;20032;-90
2022/08/18 05:39:12;;;;;;;21.85;18.00;;;;;;;26.72;74.04;99207.41;5033710;28;20029;-91
2022/08/18 05:41:41;;;;;;;22.80;19.15;;;;;;;26.75;73.42;99207.00;5015672;28;20087;-90
2022/08/18 05:44:11;;;;;;;23.95;19.23;;;;;;;26.91;73.65;99214.81;5014960;28;20032;-78
2022/08/18 05:46:46;;;;;;;21.00;18.35;;;;;;;27.20;72.98;99213.13;5032238;28;20366;-78
2022/08/18 05:49:13;;;;;;;22.50;18.08;;;;;;;27.48;72.14;99211.38;5032741;28;20073;-78
2022/08/18 05:52:01;;;;;;;20.42;16.95;;;;;;;28.04;71.15;99210.63;5032500;28;20025;-78
2022/08/18 05:57:31;;;;;;;27.73;19.88;;;;;;;29.10;65.78;99216.59;5032440;28;20064;-79
2022/08/18 05:59:57;;;;;;;19.02;17.02;;;;;;;29.17;65.62;99212.09;5032412;28;20025;-78
2022/08/18 06:02:32;;;;;;;21.92;18.08;;;;;;;29.26;65.45;99218.09;5032391;28;20057;-78
2022/08/18 06:05:24;;;;;;;20.75;18.63;;;;;;;29.12;65.19;99211.03;5032463;28;20041;-78
2022/08/18 06:07:55;;;;;;;22.77;17.75;;;;;;;28.81;66.48;99204.28;5014425;28;20440;-78
2022/08/18 06:10:22;;;;;;;25.52;22.60;;;;;;;28.74;66.92;99215.00;5032364;28;20470;-79
2022/08/18 06:12:50;;;;;;;24.55;22.00;;;;;;;28.27;68.40;99197.78;5032150;28;20420;-78
2022/08/18 06:15:24;;;;;;;22.67;19.25;;;;;;;28.32;68.33;99206.09;5032364;28;20060;-78
2022/08/18 06:17:59;;;;;;;25.80;20.35;;;;;;;28.41;69.23;99205.97;5032318;28;20065;-78
2022/08/18 06:20:43;;;;;;;20.58;18.48;;;;;;;28.53;68.41;99207.88;5034729;28;20477;-78
2022/08/18 06:23:30;;;;;;;19.98;17.88;;;;;;;28.74;68.88;99209.63;5043259;28;20083;-78
2022/08/18 06:26:11;;;;;;;28.85;19.92;;;;;;;28.74;68.28;99201.59;5051188;28;20027;-79
2022/08/18 06:29:10;;;;;;;25.38;17.98;;;;;;;28.96;67.98;99204.16;5051937;28;20025;-79
2022/08/18 06:31:42;;;;;;;21.98;19.65;;;;;;;29.50;65.73;99208.66;5050397;28;20044;-78
2022/08/18 06:34:41;;;;;;;19.73;17.63;;;;;;;29.54;66.63;99208.03;5051817;28;20480;-78
2022/08/18 06:37:16;;;;;;;19.92;18.02;;;;;;;29.83;65.33;99209.53;5051244;28;20040;-79
2022/08/18 06:39:49;;;;;;;20.17;17.35;;;;;;;30.17;63.74;99207.66;5050986;28;20021;-79
2022/08/18 06:42:24;;;;;;;20.95;18.75;;;;;;;30.93;61.68;99208.88;5050961;28;20037;-78
2022/08/18 06:44:54;;;;;;;18.08;16.42;;;;;;;31.30;61.37;99204.59;5049588;28;20032;-78
2022/08/18 06:47:43;;;;;;;17.60;15.82;;;;;;;31.93;59.59;99212.63;5050988;28;20021;-79
2022/08/18 06:50:24;;;;;;;21.52;19.35;;;;;;;32.11;56.99;99213.72;5048799;28;20373;-79
2022/08/18 06:52:59;;;;;;;19.10;15.60;;;;;;;32.79;56.68;99202.84;5049415;28;20408;-79
2022/08/18 06:55:39;;;;;;;25.83;17.13;;;;;;;34.04;53.02;99212.06;5048963;28;20021;-79
2022/08/18 06:58:25;;;;;;;20.73;18.17;;;;;;;34.40;50.96;99227.22;5049330;28;20025;-79
2022/08/18 07:00:51;;;;;;;19.40;15.25;;;;;;;36.05;49.74;99224.72;5051378;28;20032;-78
2022/08/18 07:03:20;;;;;;;17.98;16.08;;;;;;;38.32;44.67;99220.41;5051151;28;20021;-80
2022/08/18 07:06:05;;;;;;;17.85;16.13;;;;;;;39.48;42.03;99219.19;5050636;28;20021;-78
2022/08/18 07:08:32;;;;;;;20.77;15.52;;;;;;;40.86;39.71;99219.78;5050619;28;20043;-78
2022/08/18 07:11:19;;;;;;;17.67;15.60;;;;;;;41.83;37.02;99226.56;5050859;28;20087;-78
2022/08/18 07:13:46;;;;;;;16.92;14.90;;;;;;;42.46;37.01;99209.22;5049877;28;20480;-78
2022/08/18 07:16:29;;;;;;;22.13;15.55;;;;;;;43.46;34.73;99213.66;5050743;28;20036;-78
2022/08/18 07:19:09;;;;;;;15.85;14.32;;;;;;;44.78;34.48;99221.38;5048505;28;20025;-77
2022/08/18 07:21:37;;;;;;;14.55;13.25;;;;;;;46.40;32.50;99219.63;5048279;28;20029;-78
2022/08/18 07:24:05;;;;;;;18.10;14.27;;;;;;;47.48;30.32;99215.25;5051338;28;20025;-77
2022/08/18 07:27:01;;;;;;;17.38;13.90;;;;;;;47.41;30.32;99214.94;5050697;28;20035;-78
2022/08/18 07:29:28;;;;;;;16.05;13.25;;;;;;;48.37;29.30;99213.53;5048496;28;20029;-78
2022/08/18 07:31:57;;;;;;;14.50;13.07;;;;;;;48.22;28.89;99212.16;5050591;28;20029;-78
2022/08/18 07:34:26;;;;;;;13.88;12.43;;;;;;;48.45;29.07;99211.88;5042529;28;20033;-78
2022/08/18 07:36:58;;;;;;;13.35;12.02;;;;;;;49.15;28.56;99218.59;5050784;28;20499;-79
2022/08/18 07:39:33;;;;;;;15.63;12.80;;;;;;;49.18;28.69;99211.56;5030789;28;20026;-78
2022/08/18 07:42:24;;;;;;;14.13;12.30;;;;;;;50.09;28.00;99206.09;5031126;28;20120;-78
2022/08/18 07:45:02;;;;;;;17.60;12.32;;;;;;;50.22;27.28;99198.63;5031216;28;20109;-78
2022/08/18 07:47:37;;;;;;;14.75;13.38;;;;;;;49.43;26.81;99199.47;5030809;28;20033;-79
2022/08/18 07:50:06;;;;;;;15.77;13.40;;;;;;;49.22;27.74;99204.19;5031519;28;20058;-78
2022/08/18 07:52:41;;;;;;;15.93;14.40;;;;;;;47.54;28.63;99197.41;5030872;28;20043;-78
2022/08/18 07:55:15;;;;;;;18.02;13.65;;;;;;;47.06;29.54;99212.16;5031270;28;20025;-78
2022/08/18 07:57:46;;;;;;;15.60;12.80;;;;;;;48.11;28.50;99224.69;5030922;28;20047;-78
2022/08/18 08:00:29;;;;;;;16.13;12.90;;;;;;;49.23;27.19;99214.16;5030954;28;20075;-78
2022/08/18 08:03:05;;;;;;;15.77;12.25;;;;;;;49.80;27.51;99220.91;5033059;28;20065;-78
2022/08/18 08:05:59;;;;;;;14.10;12.57;;;;;;;48.63;27.53;99220.88;5048061;28;20013;-78
2022/08/18 08:08:53;;;;;;;15.57;13.88;;;;;;;50.18;27.38;99228.97;5050724;28;20044;-80
2022/08/18 08:11:28;;;;;;;14.23;12.00;;;;;;;49.84;27.42;99219.09;5052162;28;20029;-80
2022/08/18 08:14:02;;;;;;;19.02;14.57;;;;;;;49.46;27.15;99220.09;5053986;28;20076;-82
2022/08/18 08:16:46;;;;;;;14.57;12.65;;;;;;;48.26;27.95;99209.53;5052068;28;20087;-79
2022/08/18 08:19:32;;;;;;;15.43;13.80;;;;;;;48.83;27.71;99230.38;5052693;28;20366;-79
2022/08/18 08:22:08;;;;;;;14.18;12.57;;;;;;;47.97;28.77;99218.56;5054168;28;20021;-80
2022/08/18 08:24:57;;;;;;;15.50;12.95;;;;;;;47.47;28.83;99221.91;5044230;28;20033;-80
2022/08/18 08:27:43;;;;;;;15.15;13.55;;;;;;;42.80;32.97;99211.84;5044257;28;20032;-80
2022/08/18 08:30:15;;;;;;;15.82;14.32;;;;;;;39.42;37.98;99209.38;5051880;28;20432;-81
2022/08/18 08:33:05;;;;;;;15.43;13.48;;;;;;;36.52;43.08;99221.59;5044849;28;20041;-81
2022/08/18 08:35:56;;;;;;;17.42;15.20;;;;;;;35.25;45.76;99231.97;5052536;28;20044;-82
2022/08/18 08:38:50;;;;;;;15.45;13.82;;;;;;;33.97;48.94;99231.13;4971887;28;20133;-80
2022/08/18 08:41:25;;;;;;;16.85;15.15;;;;;;;33.63;49.98;99232.69;4914884;29;20043;-80
2022/08/18 08:44:06;;;;;;;17.17;15.50;;;;;;;32.70;52.85;99232.00;4915273;29;20036;-83
2022/08/18 08:46:44;;;;;;;18.05;16.10;;;;;;;32.30;53.73;99220.78;4914976;29;20472;-79
2022/08/18 08:49:48;;;;;;;20.08;15.95;;;;;;;31.92;54.69;99237.09;4913980;29;20063;-79
2022/08/18 08:52:33;;;;;;;20.83;15.38;;;;;;;31.97;54.83;99235.38;4840773;29;20046;-79
2022/08/18 08:55:24;;;;;;;25.35;15.82;;;;;;;31.80;54.93;99232.38;4840485;29;20050;-80
2022/08/18 08:58:21;;;;;;;16.23;14.77;;;;;;;31.51;55.67;99236.53;4840425;29;20070;-80
2022/08/18 09:00:49;;;;;;;16.10;14.63;;;;;;;31.50;55.72;99226.81;4785956;30;20092;-79
2022/08/18 09:03:42;;;;;;;18.73;16.70;;;;;;;31.43;55.07;99236.78;4786000;30;20129;-80
2022/08/18 09:06:19;;;;;;;20.38;15.77;;;;;;;31.30;56.55;99237.69;4785907;30;20061;-80
2022/08/18 09:09:12;;;;;;;15.43;13.10;;;;;;;31.61;54.45;99238.75;4785901;30;20118;-80
2022/08/18 09:11:47;;;;;;;15.65;13.25;;;;;;;31.82;53.16;99234.88;4785419;30;20375;-80
2022/08/18 09:14:29;;;;;;;14.63;12.45;;;;;;;31.93;53.24;99222.59;4787362;29;20126;-79
2022/08/18 09:17:39;;;;;;;15.18;13.63;;;;;;;32.20;53.69;99224.00;4803672;29;20043;-78
2022/08/18 09:20:21;;;;;;;15.98;14.05;;;;;;;32.41;51.24;99222.78;4839962;29;20038;-78
2022/08/18 09:22:51;;;;;;;15.38;13.27;;;;;;;32.35;50.95;99214.72;4839125;29;20046;-78
2022/08/18 09:25:38;;;;;;;15.18;12.70;;;;;;;32.32;51.65;99221.41;4839882;29;20049;-79
2022/08/18 09:28:12;;;;;;;14.02;12.52;;;;;;;32.40;51.27;99225.69;4848260;29;20475;-79
2022/08/18 09:31:14;;;;;;;16.85;13.55;;;;;;;32.35;52.37;99222.81;4933082;29;20043;-79
2022/08/18 09:33:39;;;;;;;16.92;12.15;;;;;;;32.45;52.99;99217.78;4933019;29;20544;-81
2022/08/18 09:36:33;;;;;;;14.63;13.20;;;;;;;32.18;52.18;99217.19;4933279;29;20032;-80
2022/08/18 09:41:54;;;;;;;15.00;11.23;;;;;;;32.01;51.96;99200.75;5032754;28;20045;-79
2022/08/18 09:44:47;;;;;;;14.32;12.52;;;;;;;32.07;53.49;99204.41;5036511;28;20484;-82
2022/08/18 09:47:23;;;;;;;14.52;13.13;;;;;;;31.98;53.59;99193.97;5052497;28;20051;-83
2022/08/18 09:49:56;;;;;;;13.45;11.40;;;;;;;31.92;52.24;99189.44;5052199;28;20090;-82
2022/08/18 09:52:21;;;;;;;16.05;12.18;;;;;;;31.91;53.22;99195.88;5034349;28;20047;-82
2022/08/18 09:54:51;;;;;;;14.30;11.95;;;;;;;31.77;52.55;99183.53;5052399;28;20025;-83
2022/08/18 09:57:21;;;;;;;17.38;11.73;;;;;;;31.94;53.29;99186.50;5052143;28;20029;-79
2022/08/18 09:59:49;;;;;;;;;;;;;;;32.09;50.79;99178.91;5052290;28;20107;-78
2022/08/18 10:02:30;;;;;;;13.15;11.45;;;;;;;32.10;53.07;99179.75;5051964;28;19921;-79
2022/08/18 10:05:14;;;;;;;15.32;12.23;;;;;;;32.09;51.32;99176.22;5050928;28;20076;-78
2022/08/18 10:08:00;;;;;;;14.40;12.88;;;;;;;31.87;53.13;99183.91;5050869;28;20044;-79
2022/08/18 10:10:36;;;;;;;15.23;11.00;;;;;;;31.78;52.08;99171.72;5052219;28;20029;-79
2022/08/18 10:13:20;;;;;;;14.18;12.70;;;;;;;31.88;53.55;99153.22;5052320;28;20021;-78
2022/08/18 10:16:13;;;;;;;16.48;13.15;;;;;;;31.79;54.42;99163.44;5051998;28;20025;-78
2022/08/18 10:18:47;;;;;;;14.70;13.10;;;;;;;31.68;53.96;99157.94;5051992;28;20037;-78
2022/08/18 10:21:17;;;;;;;13.40;12.10;;;;;;;31.49;54.22;99149.81;5052137;28;20025;-78
2022/08/18 10:23:45;;;;;;;14.15;12.30;;;;;;;31.51;53.77;99138.81;5032712;28;20037;-77
2022/08/18 10:26:29;;;;;;;13.32;11.45;;;;;;;31.38;51.07;99145.13;5051948;28;20025;-78
2022/08/18 10:28:58;;;;;;;15.38;11.00;;;;;;;31.30;50.82;99142.69;5051778;28;20032;-77
2022/08/18 10:31:25;;;;;;;12.50;10.50;;;;;;;31.16;50.19;99141.94;5051554;28;20040;-77
2022/08/18 10:33:57;;;;;;;13.93;10.60;;;;;;;31.37;51.51;99145.34;5051620;28;20476;-79
2022/08/18 10:36:40;;;;;;;13.52;11.75;;;;;;;31.35;52.55;99118.69;5051716;28;20044;-79
2022/08/18 10:39:11;;;;;;;12.60;11.27;;;;;;;31.50;52.41;99123.72;5051421;28;20036;-80
2022/08/18 10:41:45;;;;;;;13.45;12.02;;;;;;;31.69;52.81;99113.81;5050875;28;20103;-77
2022/08/18 10:44:13;;;;;;;23.73;12.88;;;;;;;31.86;52.09;99127.53;5048874;28;20380;-77
2022/08/18 10:46:42;;;;;;;14.67;11.87;;;;;;;31.96;52.19;99136.78;5051023;28;20158;-77
2022/08/18 10:49:11;;;;;;;14.65;11.48;;;;;;;31.92;52.55;99132.88;5048596;28;20027;-77
2022/08/18 10:52:06;;;;;;;13.30;11.95;;;;;;;31.81;52.97;99133.56;5050791;28;20028;-77
2022/08/18 10:54:37;;;;;;;14.68;11.23;;;;;;;31.80;50.52;99148.91;4937475;28;20542;-77
2022/08/18 10:57:49;;;;;;;12.60;10.95;;;;;;;31.54;51.04;99135.69;4970346;28;20519;-77
2022/08/18 11:00:20;;;;;;;15.95;10.93;;;;;;;31.37;50.64;99118.44;4950539;29;20479;-77
2022/08/18 11:03:15;;;;;;;13.13;10.48;;;;;;;31.34;49.91;99122.38;4950394;29;20538;-78
2022/08/18 11:05:41;;;;;;;13.70;9.43;;;;;;;31.30;47.36;99130.06;4950148;29;20035;-78
2022/08/18 11:08:16;;;;;;;11.73;8.85;;;;;;;31.23;48.50;99113.13;4950735;29;20023;-78
2022/08/18 11:10:50;;;;;;;11.10;10.00;;;;;;;31.25;50.58;99121.81;4950250;29;20147;-78
2022/08/18 11:13:24;;;;;;;17.38;11.00;;;;;;;31.21;51.46;99120.59;4934443;29;20039;-78
2022/08/18 11:15:58;;;;;;;12.68;11.43;;;;;;;31.37;50.97;99119.25;4950397;29;20118;-77
2022/08/18 11:18:31;;;;;;;11.88;9.90;;;;;;;31.60;51.56;99123.22;4950462;29;20039;-78
2022/08/18 11:21:38;;;;;;;13.68;9.90;;;;;;;31.78;48.65;99117.88;4950379;29;20071;-79
2022/08/18 11:24:15;;;;;;;11.35;9.90;;;;;;;31.85;49.37;99120.53;4950110;28;20031;-79
2022/08/18 11:26:53;;;;;;;12.10;9.95;;;;;;;31.87;47.54;99113.06;4950195;29;20027;-79
2022/08/18 11:29:37;;;;;;;10.10;8.98;;;;;;;31.61;47.01;99112.25;4950978;29;20075;-78
2022/08/18 11:32:10;;;;;;;10.50;9.15;;;;;;;31.53;46.28;99123.28;4982197;28;20103;-78
2022/08/18 11:34:46;;;;;;;15.15;9.23;;;;;;;31.57;49.27;99118.28;4992674;28;20430;-78
2022/08/18 11:37:30;;;;;;;13.90;11.13;;;;;;;31.68;49.04;99114.84;5031245;28;20036;-78
2022/08/18 11:39:58;;;;;;;11.65;9.52;;;;;;;31.71;49.12;99115.22;5031083;28;20025;-78
2022/08/18 11:42:32;;;;;;;10.38;9.38;;;;;;;31.83;49.11;99095.66;5031326;28;20030;-78
2022/08/18 11:45:11;;;;;;;11.98;9.20;;;;;;;32.00;48.34;99096.75;5031445;28;20033;-78
2022/08/18 11:47:37;;;;;;;10.05;9.02;;;;;;;32.03;47.28;99085.53;5034646;28;20053;-78
2022/08/18 11:50:10;;;;;;;8.88;8.00;;;;;;;32.04;47.83;99084.50;5034815;28;20499;-78
2022/08/18 11:52:48;;;;;;;9.30;8.40;;;;;;;31.98;46.93;99094.31;5034748;28;20385;-78
2022/08/18 11:55:20;;;;;;;9.63;8.65;;;;;;;31.88;47.50;99083.19;5035079;28;20060;-78
2022/08/18 11:57:53;;;;;;;9.82;8.98;;;;;;;31.96;47.68;99099.06;5034428;28;20033;-78
2022/08/18 12:00:46;;;;;;;11.40;9.82;;;;;;;31.78;47.78;99086.38;5034594;28;20128;-78
2022/08/18 12:03:16;;;;;;;10.90;8.63;;;;;;;31.75;48.63;99089.53;5034799;28;20034;-78